createdAt,value
2019-03-05T00:00:35.565Z,55.15
2019-03-05T00:03:06.904Z,54.35
2019-03-05T00:05:38.481Z,50.73
2019-03-05T00:08:09.907Z,52.03
2019-03-05T00:10:41.564Z,46.98
2019-03-05T00:13:13.114Z,51.98
2019-03-05T00:15:45.337Z,48.20
2019-03-05T00:18:16.836Z,46.50
2019-03-05T00:20:48.387Z,47.85
2019-03-05T00:23:51.384Z,47.40
2019-03-05T00:26:26.317Z,45.23
2019-03-05T00:29:09.952Z,47.83
2019-03-05T00:31:43.968Z,49.35
2019-03-05T00:34:39.889Z,49.00
2019-03-05T00:37:20.454Z,52.98
2019-03-05T00:39:55.282Z,47.08
2019-03-05T00:42:58.828Z,51.48
2019-03-05T00:45:54.503Z,48.68
2019-03-05T00:48:59.541Z,47.00
2019-03-05T00:51:39.944Z,46.25
2019-03-05T00:54:32.361Z,51.05
2019-03-05T00:57:25.151Z,40.17
2019-03-05T01:00:12.239Z,48.45
2019-03-05T01:02:58.987Z,50.00
2019-03-05T01:05:39.747Z,40.60
2019-03-05T01:08:11.349Z,49.93
2019-03-05T01:10:43.211Z,47.93
2019-03-05T01:13:14.465Z,40.55
2019-03-05T01:15:46.532Z,48.85
2019-03-05T01:18:17.974Z,47.05
2019-03-05T01:20:49.433Z,42.15
2019-03-05T01:23:20.689Z,42.05
2019-03-05T01:25:52.122Z,49.20
2019-03-05T01:28:23.679Z,45.92
2019-03-05T01:30:56.608Z,42.27
2019-03-05T01:36:04.244Z,39.65
2019-03-05T01:38:37.117Z,46.42
2019-03-05T01:43:40.271Z,46.63
2019-03-05T01:46:12.075Z,47.20
2019-03-05T01:48:43.373Z,41.15
2019-03-05T01:51:15.135Z,48.75
2019-03-05T01:53:46.786Z,44.18
2019-03-05T01:56:18.443Z,47.17
2019-03-05T01:58:49.997Z,40.30
2019-03-05T02:01:21.754Z,43.90
2019-03-05T02:03:53.414Z,44.53
2019-03-05T02:06:24.921Z,42.78
2019-03-05T02:08:56.249Z,48.73
2019-03-05T02:11:27.514Z,45.43
2019-03-05T02:13:58.839Z,43.50
2019-03-05T02:16:30.105Z,38.73
2019-03-05T02:19:27.619Z,44.55
2019-03-05T02:21:59.290Z,38.60
2019-03-05T02:24:50.337Z,44.05
2019-03-05T02:27:45.798Z,49.77
2019-03-05T02:30:35.492Z,40.78
2019-03-05T02:33:10.016Z,35.23
2019-03-05T02:35:52.719Z,42.25
2019-03-05T02:41:02.186Z,41.20
2019-03-05T02:44:06.957Z,34.27
2019-03-05T02:46:47.666Z,40.05
2019-03-05T02:49:25.173Z,38.00
2019-03-05T02:52:17.641Z,34.58
2019-03-05T02:55:17.944Z,42.35
2019-03-05T02:57:48.280Z,37.90
2019-03-05T03:00:21.210Z,39.10
2019-03-05T03:02:54.259Z,40.30
2019-03-05T03:05:27.239Z,43.40
2019-03-05T03:10:29.256Z,36.35
2019-03-05T03:13:00.546Z,34.63
2019-03-05T03:15:31.834Z,32.60
2019-03-05T03:18:03.120Z,40.45
2019-03-05T03:20:34.412Z,34.70
2019-03-05T03:23:06.239Z,33.28
2019-03-05T03:25:37.439Z,38.10
2019-03-05T03:28:08.602Z,37.58
2019-03-05T03:30:39.869Z,37.30
2019-03-05T03:33:11.238Z,34.80
2019-03-05T03:35:42.892Z,35.35
2019-03-05T03:38:14.551Z,34.67
2019-03-05T03:40:46.632Z,35.20
2019-03-05T03:43:18.281Z,38.58
2019-03-05T03:45:49.887Z,36.95
2019-03-05T03:48:21.787Z,38.60
2019-03-05T03:50:53.444Z,35.28
2019-03-05T03:53:25.022Z,35.35
2019-03-05T03:55:56.654Z,37.60
2019-03-05T03:58:28.414Z,39.27
2019-03-05T04:01:00.072Z,40.63
2019-03-05T04:03:31.834Z,37.13
2019-03-05T04:06:03.480Z,46.75
2019-03-05T04:08:34.938Z,41.75
2019-03-05T04:11:06.237Z,45.38
2019-03-05T04:13:37.420Z,42.83
2019-03-05T04:16:08.721Z,33.30
2019-03-05T04:18:40.204Z,30.45
2019-03-05T04:21:11.559Z,40.17
2019-03-05T04:23:43.869Z,39.13
2019-03-05T04:26:15.172Z,32.88
2019-03-05T04:28:46.537Z,36.17
2019-03-05T04:31:18.608Z,34.75
2019-03-05T04:33:49.905Z,29.27
2019-03-05T04:36:21.177Z,38.85
2019-03-05T04:38:52.400Z,32.55
2019-03-05T04:41:23.778Z,32.23
2019-03-05T04:43:55.099Z,30.27
2019-03-05T04:46:34.126Z,31.62
2019-03-05T04:49:16.172Z,25.50
2019-03-05T04:51:49.269Z,30.68
2019-03-05T04:54:21.891Z,26.70
2019-03-05T04:56:53.098Z,29.37
2019-03-05T04:59:24.360Z,23.57
2019-03-05T05:01:55.892Z,23.70
2019-03-05T05:04:27.552Z,35.98
2019-03-05T05:06:59.207Z,25.82
2019-03-05T05:09:30.857Z,22.85
2019-03-05T05:12:02.621Z,25.77
2019-03-05T05:14:34.267Z,26.77
2019-03-05T05:17:06.027Z,22.52
2019-03-05T05:19:37.586Z,24.55
2019-03-05T05:22:09.241Z,22.65
2019-03-05T05:24:40.851Z,18.60
2019-03-05T05:27:12.243Z,28.32
2019-03-05T05:29:43.901Z,30.02
2019-03-05T05:32:15.582Z,24.80
2019-03-05T05:34:46.786Z,22.65
2019-03-05T05:37:17.999Z,20.60
2019-03-05T05:40:21.457Z,25.62
2019-03-05T05:42:54.024Z,27.02
2019-03-05T05:45:38.016Z,23.23
2019-03-05T05:48:09.465Z,18.20
2019-03-05T05:50:40.989Z,25.20
2019-03-05T05:53:12.280Z,19.55
2019-03-05T05:55:43.647Z,24.07
2019-03-05T05:58:14.874Z,24.07
2019-03-05T06:00:47.707Z,17.30
2019-03-05T06:05:49.763Z,18.98
2019-03-05T06:08:21.069Z,15.93
2019-03-05T06:10:53.097Z,17.50
2019-03-05T06:13:24.627Z,17.35
2019-03-05T06:15:55.912Z,20.52
2019-03-05T06:18:27.250Z,18.55
2019-03-05T06:20:58.504Z,13.18
2019-03-05T06:23:29.824Z,17.42
2019-03-05T06:26:01.392Z,20.25
2019-03-05T06:28:33.021Z,24.20
2019-03-05T06:31:04.171Z,17.07
2019-03-05T06:33:35.591Z,22.40
2019-03-05T06:36:06.927Z,19.17
2019-03-05T06:38:38.291Z,21.60
2019-03-05T06:41:10.589Z,12.35
2019-03-05T06:43:41.874Z,17.45
2019-03-05T06:46:13.453Z,19.35
2019-03-05T06:48:44.775Z,17.50
2019-03-05T06:51:17.160Z,14.87
2019-03-05T06:53:48.422Z,18.00
2019-03-05T06:56:19.678Z,22.52
2019-03-05T06:58:52.480Z,15.63
2019-03-05T07:01:25.804Z,17.30
2019-03-05T07:03:57.082Z,19.62
2019-03-05T07:06:49.356Z,16.32
2019-03-05T07:09:42.388Z,18.62
2019-03-05T07:12:19.775Z,19.25
2019-03-05T07:15:18.487Z,17.85
2019-03-05T07:18:01.867Z,16.45
2019-03-05T07:21:03.523Z,24.90
2019-03-05T07:23:47.068Z,17.17
2019-03-05T07:28:48.921Z,17.37
2019-03-05T07:31:20.232Z,12.00
2019-03-05T07:33:53.081Z,17.67
2019-03-05T07:36:24.424Z,22.15
2019-03-05T07:38:55.775Z,17.70
2019-03-05T07:41:27.106Z,14.80
2019-03-05T07:43:58.695Z,18.82
2019-03-05T07:46:30.080Z,25.10
2019-03-05T07:49:01.430Z,16.45
2019-03-05T07:51:32.965Z,23.67
2019-03-05T07:54:04.566Z,19.42
2019-03-05T07:56:36.339Z,21.75
2019-03-05T07:59:08.106Z,19.85
2019-03-05T08:01:39.542Z,16.45
2019-03-05T08:04:11.132Z,22.07
2019-03-05T08:06:43.462Z,27.10
2019-03-05T08:09:35.096Z,20.12
2019-03-05T08:12:30.923Z,20.82
2019-03-05T08:15:08.501Z,21.73
2019-03-05T08:17:40.070Z,19.37
2019-03-05T08:20:13.045Z,17.45
2019-03-05T08:22:44.805Z,18.67
2019-03-05T08:25:16.770Z,25.88
2019-03-05T08:27:50.677Z,20.95
2019-03-05T08:30:22.229Z,20.23
2019-03-05T08:32:53.926Z,17.77
2019-03-05T08:35:25.359Z,22.42
2019-03-05T08:37:56.812Z,23.92
2019-03-05T08:40:28.472Z,19.27
2019-03-05T08:42:59.799Z,24.57
2019-03-05T08:45:31.717Z,19.67
2019-03-05T08:48:03.038Z,16.42
2019-03-05T08:50:34.388Z,18.02
2019-03-05T08:53:07.486Z,17.77
2019-03-05T08:58:09.828Z,19.60
2019-03-05T09:00:41.512Z,26.07
2019-03-05T09:03:14.272Z,17.37
2019-03-05T09:05:46.344Z,12.50
2019-03-05T09:08:21.137Z,20.82
2019-03-05T09:10:53.273Z,21.07
2019-03-05T09:13:32.753Z,18.70
2019-03-05T09:15:57.975Z,18.65
2019-03-05T09:18:29.739Z,17.80
2019-03-05T09:21:01.612Z,15.95
2019-03-05T09:26:04.813Z,15.48
2019-03-05T09:28:36.110Z,17.12
2019-03-05T09:31:07.663Z,15.15
2019-03-05T09:33:39.071Z,19.98
2019-03-05T09:36:10.819Z,16.10
2019-03-05T09:38:42.477Z,18.32
2019-03-05T09:41:14.119Z,18.98
2019-03-05T09:43:45.790Z,19.42
2019-03-05T09:46:19.588Z,23.55
2019-03-05T09:48:50.939Z,24.05
2019-03-05T09:51:22.802Z,19.02
2019-03-05T09:56:28.261Z,22.40
2019-03-05T09:59:00.072Z,17.05
2019-03-05T10:01:32.714Z,16.97
2019-03-05T10:04:04.800Z,23.75
2019-03-05T10:06:36.531Z,18.02
2019-03-05T10:09:08.131Z,17.35
2019-03-05T10:14:11.700Z,16.30
2019-03-05T10:16:43.351Z,19.07
2019-03-05T10:19:15.111Z,17.20
2019-03-05T10:21:46.810Z,22.40
2019-03-05T10:24:18.222Z,15.83
2019-03-05T10:26:50.280Z,15.30
2019-03-05T10:29:21.940Z,18.27
2019-03-05T10:31:53.774Z,18.15
2019-03-05T10:34:25.163Z,16.67
2019-03-05T10:36:56.810Z,16.40
2019-03-05T10:39:30.829Z,17.73
2019-03-05T10:44:32.075Z,20.92
2019-03-05T10:47:03.726Z,20.72
2019-03-05T10:49:35.233Z,15.93
2019-03-05T10:52:10.026Z,19.25
2019-03-05T10:54:41.914Z,20.15
2019-03-05T10:57:13.549Z,18.45
2019-03-05T10:59:45.393Z,22.42
2019-03-05T11:02:17.351Z,17.17
2019-03-05T11:04:49.021Z,16.57
2019-03-05T11:07:20.366Z,29.35
2019-03-05T11:09:53.252Z,20.45
2019-03-05T11:12:25.113Z,16.75
2019-03-05T11:14:56.943Z,19.17
2019-03-05T11:17:28.431Z,19.73
2019-03-05T11:20:00.003Z,16.95
2019-03-05T11:22:31.668Z,15.88
2019-03-05T11:25:04.231Z,17.95
2019-03-05T11:27:37.268Z,21.10
2019-03-05T11:30:12.370Z,20.70
2019-03-05T11:32:44.201Z,19.20
2019-03-05T11:35:17.881Z,21.27
2019-03-05T11:37:49.566Z,18.55
2019-03-05T11:40:21.481Z,17.87
2019-03-05T11:42:53.066Z,17.65
2019-03-05T11:45:26.376Z,16.12
2019-03-05T11:47:57.714Z,16.32
2019-03-05T11:50:29.367Z,18.27
2019-03-05T11:53:00.718Z,21.33
2019-03-05T11:55:32.589Z,15.90
2019-03-05T11:58:04.288Z,15.05
2019-03-05T12:00:55.380Z,13.20
2019-03-05T12:03:27.007Z,14.85
2019-03-05T12:05:59.673Z,17.48
2019-03-05T12:08:31.344Z,23.67
2019-03-05T12:11:03.216Z,19.05
2019-03-05T12:13:35.296Z,13.83
2019-03-05T12:16:07.012Z,16.48
2019-03-05T12:18:39.094Z,32.03
2019-03-05T12:21:10.736Z,15.28
2019-03-05T12:23:46.674Z,18.80
2019-03-05T12:26:15.415Z,21.27
2019-03-05T12:28:47.174Z,21.40
2019-03-05T12:33:50.866Z,21.97
2019-03-05T12:36:22.759Z,23.73
2019-03-05T12:38:54.347Z,23.95
2019-03-05T12:41:25.732Z,22.50
2019-03-05T12:43:57.520Z,26.55
2019-03-05T12:46:28.837Z,17.55
2019-03-05T12:49:00.486Z,19.75
2019-03-05T12:51:32.462Z,23.00
2019-03-05T12:54:04.026Z,21.95
2019-03-05T12:56:35.764Z,21.52
2019-03-05T12:59:07.419Z,21.40
2019-03-05T13:01:38.859Z,21.20
2019-03-05T13:04:10.549Z,19.27
2019-03-05T13:06:42.126Z,15.03
2019-03-05T13:09:17.724Z,27.27
2019-03-05T13:11:50.962Z,25.10
2019-03-05T13:14:22.636Z,23.25
2019-03-05T13:16:55.218Z,17.77
2019-03-05T13:19:26.628Z,20.62
2019-03-05T13:21:58.370Z,23.42
2019-03-05T13:24:30.144Z,28.50
2019-03-05T13:27:01.993Z,24.02
2019-03-05T13:29:33.665Z,26.00
2019-03-05T13:32:05.225Z,27.65
2019-03-05T13:34:36.615Z,24.35
2019-03-05T13:37:08.007Z,29.55
2019-03-05T13:39:39.486Z,19.27
2019-03-05T13:42:10.919Z,28.25
2019-03-05T13:44:43.677Z,26.62
2019-03-05T13:47:15.443Z,29.10
2019-03-05T13:49:58.860Z,30.12
2019-03-05T13:52:50.392Z,25.08
2019-03-05T13:55:31.067Z,23.57
2019-03-05T13:58:33.229Z,33.38
2019-03-05T14:01:06.149Z,23.95
2019-03-05T14:03:40.649Z,30.95
2019-03-05T14:06:33.491Z,33.15
2019-03-05T14:09:13.521Z,31.37
2019-03-05T14:11:47.108Z,24.02
2019-03-05T14:14:26.761Z,26.07
2019-03-05T14:17:15.186Z,30.25
2019-03-05T14:19:47.008Z,26.33
2019-03-05T14:22:18.794Z,28.75
2019-03-05T14:24:58.252Z,25.37
2019-03-05T14:27:23.822Z,24.67
2019-03-05T14:29:55.579Z,28.40
2019-03-05T14:32:27.352Z,30.88
2019-03-05T14:35:00.942Z,24.20
2019-03-05T14:37:32.894Z,26.68
2019-03-05T14:40:22.868Z,29.90
2019-03-05T14:42:39.599Z,29.92
2019-03-05T14:45:20.472Z,25.97
2019-03-05T14:47:55.136Z,27.40
2019-03-05T14:50:26.541Z,26.45
2019-03-05T14:52:58.413Z,34.78
2019-03-05T14:55:30.173Z,25.23
2019-03-05T14:58:01.816Z,24.35
2019-03-05T15:00:33.569Z,33.25
2019-03-05T15:03:05.390Z,37.80
2019-03-05T15:05:37.185Z,32.63
2019-03-05T15:08:08.628Z,38.33
2019-03-05T15:10:40.125Z,41.18
2019-03-05T15:13:17.095Z,37.73
2019-03-05T15:15:45.161Z,32.88
2019-03-05T15:18:17.132Z,35.05
2019-03-05T15:20:48.887Z,43.92
2019-03-05T15:23:20.661Z,43.00
2019-03-05T15:25:52.384Z,44.38
2019-03-05T15:28:24.237Z,51.58
2019-03-05T15:30:55.949Z,51.98
2019-03-05T15:33:27.687Z,42.10
2019-03-05T15:35:59.507Z,45.67
2019-03-05T15:38:31.816Z,44.27
2019-03-05T15:41:03.486Z,36.60
2019-03-05T15:43:35.169Z,38.45
2019-03-05T15:46:06.729Z,43.28
2019-03-05T15:48:38.234Z,43.58
2019-03-05T15:51:09.621Z,42.70
2019-03-05T15:53:41.160Z,41.35
2019-03-05T15:56:12.569Z,48.10
2019-03-05T15:58:43.861Z,44.42
2019-03-05T16:01:22.054Z,45.23
2019-03-05T16:03:48.558Z,45.85
2019-03-05T16:06:20.270Z,42.88
2019-03-05T16:08:52.071Z,30.57
2019-03-05T16:11:23.636Z,41.85
2019-03-05T16:13:56.512Z,43.15
2019-03-05T16:16:28.672Z,34.78
2019-03-05T16:19:00.536Z,37.10
2019-03-05T16:21:32.390Z,33.35
2019-03-05T16:24:04.351Z,31.37
2019-03-05T16:26:36.119Z,34.05
2019-03-05T16:29:10.834Z,38.08
2019-03-05T16:31:51.214Z,38.15
2019-03-05T16:34:24.908Z,39.00
2019-03-05T16:39:41.016Z,36.63
2019-03-05T16:42:24.868Z,34.00
2019-03-05T16:45:14.754Z,34.45
2019-03-05T16:48:00.445Z,37.78
2019-03-05T16:50:42.936Z,33.92
2019-03-05T16:53:20.633Z,35.43
2019-03-05T16:56:00.080Z,35.08
2019-03-05T16:58:49.440Z,33.92
2019-03-05T17:01:28.465Z,37.40
2019-03-05T17:04:01.684Z,46.68
2019-03-05T17:06:51.961Z,36.95
2019-03-05T17:09:37.038Z,24.23
2019-03-05T17:12:08.687Z,25.95
2019-03-05T17:14:40.302Z,27.98
2019-03-05T17:17:11.919Z,27.48
2019-03-05T17:19:43.855Z,29.00
2019-03-05T17:22:15.407Z,21.90
2019-03-05T17:24:47.174Z,20.50
2019-03-05T17:27:18.814Z,19.30
2019-03-05T17:29:50.486Z,29.27
2019-03-05T17:32:23.072Z,21.00
2019-03-05T17:34:54.332Z,29.12
2019-03-05T17:37:25.616Z,35.75
2019-03-05T17:39:57.025Z,39.63
2019-03-05T17:42:28.328Z,52.98
2019-03-05T17:44:59.569Z,50.25
2019-03-05T17:47:31.251Z,55.65
2019-03-05T17:50:02.915Z,41.50
2019-03-05T17:52:34.984Z,26.85
2019-03-05T17:55:10.105Z,28.23
2019-03-05T17:57:42.381Z,18.55
2019-03-05T18:00:29.416Z,16.20
2019-03-05T18:03:01.272Z,13.08
2019-03-05T18:05:33.321Z,16.60
2019-03-05T18:08:04.982Z,18.30
2019-03-05T18:10:36.633Z,20.17
2019-03-05T18:13:08.291Z,19.90
2019-03-05T18:15:39.837Z,19.17
2019-03-05T18:18:11.397Z,17.65
2019-03-05T18:20:43.169Z,14.98
2019-03-05T18:23:14.922Z,18.80
2019-03-05T18:25:46.567Z,16.45
2019-03-05T18:28:18.122Z,20.17
2019-03-05T18:30:49.772Z,16.95
2019-03-05T18:33:22.560Z,20.50
2019-03-05T18:35:54.227Z,15.25
2019-03-05T18:38:26.079Z,13.90
2019-03-05T18:40:57.756Z,18.42
2019-03-05T18:43:29.401Z,13.70
2019-03-05T18:46:00.948Z,16.12
2019-03-05T18:48:32.805Z,8.63
2019-03-05T18:51:04.568Z,10.35
2019-03-05T18:53:35.806Z,11.15
2019-03-05T18:56:07.362Z,13.30
2019-03-05T18:58:39.022Z,13.15
2019-03-05T19:01:10.464Z,12.13
2019-03-05T19:03:41.800Z,12.05
2019-03-05T19:06:13.475Z,11.55
2019-03-05T19:08:45.129Z,12.25
2019-03-05T19:11:16.683Z,14.90
2019-03-05T19:13:49.977Z,12.58
2019-03-05T19:16:21.630Z,12.65
2019-03-05T19:18:53.218Z,14.38
2019-03-05T19:21:24.844Z,12.20
2019-03-05T19:23:56.912Z,14.63
2019-03-05T19:26:28.670Z,13.90
2019-03-05T19:29:00.223Z,12.73
2019-03-05T19:31:31.672Z,16.67
2019-03-05T19:34:03.427Z,15.43
2019-03-05T19:36:35.082Z,11.70
2019-03-05T19:39:06.954Z,15.18
2019-03-05T19:41:39.930Z,15.05
2019-03-05T19:44:11.490Z,16.30
2019-03-05T19:46:43.174Z,17.35
2019-03-05T19:49:15.104Z,16.75
2019-03-05T19:51:46.551Z,16.95
2019-03-05T19:54:19.137Z,17.02
2019-03-05T19:56:50.786Z,16.23
2019-03-05T19:59:22.571Z,14.07
2019-03-05T20:01:54.210Z,16.97
2019-03-05T20:04:27.601Z,14.95
2019-03-05T20:07:02.637Z,14.85
2019-03-05T20:09:34.289Z,15.28
2019-03-05T20:12:05.956Z,14.83
2019-03-05T20:14:37.603Z,13.62
2019-03-05T20:17:09.257Z,12.75
2019-03-05T20:19:40.819Z,11.93
2019-03-05T20:22:12.677Z,13.03
2019-03-05T20:24:44.465Z,12.23
2019-03-05T20:27:16.482Z,16.07
2019-03-05T20:29:47.845Z,11.68
2019-03-05T20:32:19.510Z,10.23
2019-03-05T20:34:51.054Z,14.65
2019-03-05T20:37:22.705Z,11.68
2019-03-05T20:39:54.372Z,10.60
2019-03-05T20:42:26.021Z,11.30
2019-03-05T20:44:57.581Z,13.48
2019-03-05T20:47:29.214Z,13.85
2019-03-05T20:50:00.483Z,11.65
2019-03-05T20:52:31.838Z,15.90
2019-03-05T20:55:04.204Z,10.15
2019-03-05T20:57:35.969Z,11.03
2019-03-05T21:00:10.692Z,13.22
2019-03-05T21:02:42.653Z,11.18
2019-03-05T21:05:14.313Z,11.95
2019-03-05T21:07:45.844Z,12.23
2019-03-05T21:10:18.236Z,12.85
2019-03-05T21:12:49.898Z,13.72
2019-03-05T21:15:21.544Z,12.25
2019-03-05T21:17:54.736Z,12.95
2019-03-05T21:20:25.971Z,14.33
2019-03-05T21:22:57.252Z,10.82
2019-03-05T21:25:29.613Z,15.23
2019-03-05T21:28:01.148Z,12.93
2019-03-05T21:30:32.812Z,18.17
2019-03-05T21:33:04.468Z,13.55
2019-03-05T21:35:36.126Z,17.87
2019-03-05T21:38:07.783Z,15.53
2019-03-05T21:40:39.435Z,15.28
2019-03-05T21:43:11.088Z,14.35
2019-03-05T21:45:48.370Z,14.43
2019-03-05T21:48:20.646Z,16.10
2019-03-05T21:50:52.410Z,16.57
2019-03-05T21:53:24.161Z,10.68
2019-03-05T21:55:55.828Z,11.97
2019-03-05T21:58:27.374Z,14.28
2019-03-05T22:00:59.131Z,13.13
2019-03-05T22:03:30.888Z,11.73
2019-03-05T22:06:02.442Z,14.73
2019-03-05T22:08:34.200Z,13.60
2019-03-05T22:11:05.858Z,14.58
2019-03-05T22:13:37.415Z,14.65
2019-03-05T22:16:08.976Z,12.18
2019-03-05T22:18:40.924Z,14.33
2019-03-05T22:21:12.176Z,12.58
2019-03-05T22:23:43.932Z,13.78
2019-03-05T22:26:15.587Z,14.73
2019-03-05T22:28:47.152Z,14.68
2019-03-05T22:31:18.697Z,14.85
2019-03-05T22:33:50.355Z,14.28
2019-03-05T22:36:22.212Z,17.52
2019-03-05T22:38:53.869Z,16.48
2019-03-05T22:41:27.072Z,14.63
2019-03-05T22:43:58.199Z,19.67
2019-03-05T22:46:29.958Z,15.35
2019-03-05T22:49:01.415Z,16.17
2019-03-05T22:51:33.065Z,13.40
2019-03-05T22:54:04.619Z,14.43
2019-03-05T22:56:36.276Z,13.25
2019-03-05T22:59:07.727Z,11.57
2019-03-05T23:01:39.487Z,14.73
2019-03-05T23:04:11.346Z,14.03
2019-03-05T23:06:43.309Z,15.43
2019-03-05T23:09:16.396Z,14.90
2019-03-05T23:11:48.054Z,16.23
2019-03-05T23:14:19.709Z,14.55
2019-03-05T23:16:51.570Z,13.30
2019-03-05T23:19:23.128Z,14.10
2019-03-05T23:21:54.883Z,15.60
2019-03-05T23:24:26.542Z,17.02
2019-03-05T23:27:00.760Z,18.27
2019-03-05T23:29:33.946Z,17.02
2019-03-05T23:32:05.809Z,15.20
2019-03-05T23:34:37.572Z,15.73
2019-03-05T23:37:09.242Z,14.87
2019-03-05T23:39:40.983Z,13.22
2019-03-05T23:42:12.643Z,11.93
2019-03-05T23:44:43.883Z,14.10
2019-03-05T23:47:15.432Z,14.63
2019-03-05T23:49:47.093Z,16.23
2019-03-05T23:52:19.059Z,13.60
2019-03-05T23:54:50.920Z,13.90
2019-03-05T23:57:22.466Z,17.48
2019-03-05T23:59:55.148Z,12.63
